createdAt,value
2022-08-03T00:01:23.441Z,24.37
2022-08-03T00:03:49.889Z,24.38
2022-08-03T00:06:16.374Z,24.38
2022-08-03T00:08:42.804Z,24.36
2022-08-03T00:11:09.303Z,24.36
2022-08-03T00:13:35.747Z,24.36
2022-08-03T00:16:02.253Z,24.35
2022-08-03T00:18:28.724Z,24.34
2022-08-03T00:20:55.169Z,24.34
2022-08-03T00:23:21.593Z,24.34
2022-08-03T00:25:48.075Z,24.32
2022-08-03T00:28:14.527Z,24.31
2022-08-03T00:30:41.950Z,24.30
2022-08-03T00:33:10.252Z,24.29
2022-08-03T00:35:50.921Z,24.27
2022-08-03T00:38:18.140Z,24.24
2022-08-03T00:40:44.602Z,24.24
2022-08-03T00:43:11.552Z,24.22
2022-08-03T00:45:42.385Z,24.20
2022-08-03T00:48:29.492Z,24.18
2022-08-03T00:50:56.905Z,24.16
2022-08-03T00:53:23.348Z,24.13
2022-08-03T00:55:49.817Z,24.12
2022-08-03T00:58:16.256Z,24.09
2022-08-03T01:00:43.037Z,24.07
2022-08-03T01:03:12.007Z,24.06
2022-08-03T01:05:46.259Z,24.06
2022-08-03T01:08:23.391Z,24.04
2022-08-03T01:11:04.065Z,24.04
2022-08-03T01:14:01.640Z,24.04
2022-08-03T01:16:37.155Z,24.00
2022-08-03T01:19:28.184Z,23.99
2022-08-03T01:22:18.506Z,23.96
2022-08-03T01:24:57.618Z,23.96
2022-08-03T01:27:42.688Z,23.94
2022-08-03T01:30:12.577Z,23.92
2022-08-03T01:32:57.983Z,23.91
2022-08-03T01:35:39.387Z,23.89
2022-08-03T01:38:11.860Z,23.87
2022-08-03T01:40:40.560Z,23.87
2022-08-03T01:43:07.989Z,23.86
2022-08-03T01:45:35.426Z,23.84
2022-08-03T01:48:03.122Z,23.83
2022-08-03T01:50:30.970Z,23.82
2022-08-03T01:52:58.974Z,23.84
2022-08-03T01:55:28.241Z,23.82
2022-08-03T01:58:05.282Z,23.82
2022-08-03T02:00:35.113Z,23.81
2022-08-03T02:03:01.982Z,23.81
2022-08-03T02:05:29.444Z,23.82
2022-08-03T02:07:56.695Z,23.79
2022-08-03T02:10:35.252Z,23.77
2022-08-03T02:13:04.284Z,23.75
2022-08-03T02:15:33.000Z,23.73
2022-08-03T02:18:00.325Z,23.70
2022-08-03T02:20:27.323Z,23.68
2022-08-03T02:22:53.900Z,23.67
2022-08-03T02:25:20.399Z,23.66
2022-08-03T02:27:52.977Z,23.64
2022-08-03T02:30:20.757Z,23.63
2022-08-03T02:32:52.101Z,23.61
2022-08-03T02:35:19.673Z,23.60
2022-08-03T02:37:52.434Z,23.58
2022-08-03T02:40:20.484Z,23.56
2022-08-03T02:42:47.519Z,23.54
2022-08-03T02:45:15.857Z,23.51
2022-08-03T02:47:54.218Z,23.49
2022-08-03T02:50:22.287Z,23.46
2022-08-03T02:52:49.849Z,23.44
2022-08-03T02:55:17.484Z,23.41
2022-08-03T02:57:44.805Z,23.38
2022-08-03T03:00:12.372Z,23.34
2022-08-03T03:02:40.404Z,23.33
2022-08-03T03:05:55.790Z,23.29
2022-08-03T03:07:58.600Z,23.25
2022-08-03T03:10:25.877Z,23.23
2022-08-03T03:12:55.773Z,23.21
2022-08-03T03:15:23.639Z,23.19
2022-08-03T03:17:50.354Z,23.17
2022-08-03T03:20:29.726Z,23.13
2022-08-03T03:22:58.527Z,23.10
2022-08-03T03:25:25.054Z,23.05
2022-08-03T03:27:51.720Z,23.02
2022-08-03T03:30:18.671Z,22.98
2022-08-03T03:32:45.112Z,22.96
2022-08-03T03:35:11.794Z,22.93
2022-08-03T03:37:38.299Z,22.90
2022-08-03T03:40:05.369Z,22.88
2022-08-03T03:42:32.006Z,22.86
2022-08-03T03:44:58.587Z,22.82
2022-08-03T03:47:32.236Z,22.79
2022-08-03T03:49:59.468Z,22.76
2022-08-03T03:52:25.933Z,22.72
2022-08-03T03:54:53.787Z,22.70
2022-08-03T03:57:21.876Z,22.67
2022-08-03T03:59:48.793Z,22.66
2022-08-03T04:02:15.413Z,22.63
2022-08-03T04:05:00.662Z,22.62
2022-08-03T04:07:46.288Z,22.61
2022-08-03T04:10:36.365Z,22.61
2022-08-03T04:13:04.240Z,22.58
2022-08-03T04:15:31.721Z,22.58
2022-08-03T04:17:59.176Z,22.56
2022-08-03T04:20:28.482Z,22.57
2022-08-03T04:22:55.948Z,22.56
2022-08-03T04:25:24.931Z,22.58
2022-08-03T04:28:29.274Z,22.60
2022-08-03T04:30:47.798Z,22.64
2022-08-03T04:33:15.029Z,22.66
2022-08-03T04:36:02.185Z,22.69
2022-08-03T04:38:35.704Z,22.71
2022-08-03T04:41:02.420Z,22.73
2022-08-03T04:43:29.589Z,22.75
2022-08-03T04:45:56.633Z,22.79
2022-08-03T04:48:23.155Z,22.83
2022-08-03T04:50:49.745Z,22.86
2022-08-03T04:53:16.581Z,22.90
2022-08-03T04:55:43.077Z,22.93
2022-08-03T04:58:09.555Z,22.97
2022-08-03T05:00:36.106Z,22.99
2022-08-03T05:03:02.558Z,23.03
2022-08-03T05:05:36.270Z,23.07
2022-08-03T05:08:15.906Z,23.13
2022-08-03T05:10:47.276Z,23.11
2022-08-03T05:13:14.533Z,23.17
2022-08-03T05:15:43.251Z,23.20
2022-08-03T05:18:13.835Z,23.25
2022-08-03T05:20:40.871Z,23.25
2022-08-03T05:23:07.344Z,23.32
2022-08-03T05:25:33.793Z,23.41
2022-08-03T05:28:00.238Z,23.46
2022-08-03T05:30:33.407Z,23.50
2022-08-03T05:33:02.355Z,23.58
2022-08-03T05:36:02.062Z,23.64
2022-08-03T05:38:24.121Z,23.70
2022-08-03T05:40:57.227Z,23.75
2022-08-03T05:43:24.385Z,23.83
2022-08-03T05:46:11.934Z,23.87
2022-08-03T05:48:37.265Z,23.94
2022-08-03T05:51:06.523Z,24.01
2022-08-03T05:53:33.941Z,24.08
2022-08-03T05:56:03.431Z,24.14
2022-08-03T05:58:39.901Z,24.21
2022-08-03T06:01:06.400Z,24.27
2022-08-03T06:03:32.917Z,24.34
2022-08-03T06:06:00.540Z,24.41
2022-08-03T06:08:27.217Z,24.46
2022-08-03T06:10:53.659Z,24.52
2022-08-03T06:13:20.166Z,24.58
2022-08-03T06:15:46.587Z,24.65
2022-08-03T06:18:13.040Z,24.71
2022-08-03T06:20:39.480Z,24.75
2022-08-03T06:23:06.487Z,24.84
2022-08-03T06:25:33.967Z,24.93
2022-08-03T06:28:00.479Z,25.00
2022-08-03T06:30:27.095Z,25.10
2022-08-03T06:32:53.619Z,25.17
2022-08-03T06:35:20.285Z,25.24
2022-08-03T06:37:48.639Z,25.34
2022-08-03T06:40:21.756Z,25.40
2022-08-03T06:42:50.962Z,25.52
2022-08-03T06:45:17.868Z,25.57
2022-08-03T06:47:44.576Z,25.66
2022-08-03T06:50:12.846Z,25.75
2022-08-03T06:52:43.880Z,25.87
2022-08-03T06:55:10.514Z,25.93
2022-08-03T06:57:37.035Z,26.01
2022-08-03T07:00:10.591Z,26.10
2022-08-03T07:02:39.694Z,26.18
2022-08-03T07:05:07.291Z,26.22
2022-08-03T07:07:33.838Z,26.33
2022-08-03T07:10:00.292Z,26.37
2022-08-03T07:12:29.800Z,26.47
2022-08-03T07:15:00.767Z,26.53
2022-08-03T07:17:29.994Z,26.60
2022-08-03T07:19:56.741Z,26.68
2022-08-03T07:22:23.649Z,26.75
2022-08-03T07:24:50.078Z,26.86
2022-08-03T07:27:16.717Z,26.92
2022-08-03T07:29:43.161Z,27.05
2022-08-03T07:32:09.725Z,27.13
2022-08-03T07:34:36.234Z,27.18
2022-08-03T07:37:02.675Z,27.22
2022-08-03T07:39:29.114Z,27.25
2022-08-03T07:41:55.666Z,27.26
2022-08-03T07:44:22.102Z,27.36
2022-08-03T07:46:48.580Z,27.36
2022-08-03T07:49:15.209Z,27.42
2022-08-03T07:51:41.698Z,27.52
2022-08-03T07:54:10.125Z,27.58
2022-08-03T07:56:37.343Z,27.64
2022-08-03T07:59:03.915Z,27.68
2022-08-03T08:01:32.738Z,27.78
2022-08-03T08:03:59.356Z,27.85
2022-08-03T08:06:25.800Z,27.93
2022-08-03T08:08:53.601Z,28.01
2022-08-03T08:11:22.199Z,28.11
2022-08-03T08:13:48.654Z,28.18
2022-08-03T08:16:15.124Z,28.23
2022-08-03T08:18:41.554Z,28.35
2022-08-03T08:21:08.041Z,28.40
2022-08-03T08:23:42.353Z,28.45
2022-08-03T08:26:10.472Z,28.54
2022-08-03T08:28:36.933Z,28.61
2022-08-03T08:31:03.423Z,28.73
2022-08-03T08:33:47.914Z,28.80
2022-08-03T08:36:16.764Z,28.84
2022-08-03T08:38:44.873Z,28.89
2022-08-03T08:41:12.676Z,28.97
2022-08-03T08:43:39.129Z,29.08
2022-08-03T08:46:08.250Z,29.06
2022-08-03T08:48:36.067Z,29.16
2022-08-03T08:51:02.644Z,29.24
2022-08-03T08:53:30.130Z,29.33
2022-08-03T08:56:01.049Z,29.41
2022-08-03T08:58:35.268Z,29.48
2022-08-03T09:01:01.824Z,29.46
2022-08-03T09:03:30.346Z,29.48
2022-08-03T09:05:59.308Z,29.51
2022-08-03T09:08:25.949Z,29.51
2022-08-03T09:10:52.409Z,29.64
2022-08-03T09:13:18.994Z,29.69
2022-08-03T09:16:00.566Z,29.71
2022-08-03T09:18:32.188Z,29.72
2022-08-03T09:21:32.160Z,29.79
2022-08-03T09:24:02.918Z,29.85
2022-08-03T09:26:31.464Z,29.89
2022-08-03T09:29:08.114Z,29.95
2022-08-03T09:31:45.993Z,29.93
2022-08-03T09:34:14.812Z,29.97
2022-08-03T09:36:49.135Z,29.98
2022-08-03T09:39:40.823Z,30.03
2022-08-03T09:42:14.704Z,30.09
2022-08-03T09:44:43.601Z,30.08
2022-08-03T09:47:11.282Z,30.14
2022-08-03T09:49:42.348Z,30.18
2022-08-03T09:52:31.676Z,30.17
2022-08-03T09:55:01.588Z,30.20
2022-08-03T09:57:30.572Z,30.23
2022-08-03T10:00:11.098Z,30.29
2022-08-03T10:02:38.102Z,30.27
2022-08-03T10:05:06.097Z,30.35
2022-08-03T10:07:45.937Z,30.36
2022-08-03T10:10:29.337Z,30.45
2022-08-03T10:12:58.721Z,30.43
2022-08-03T10:16:21.600Z,30.46
2022-08-03T10:18:11.653Z,30.49
2022-08-03T10:20:41.900Z,30.53
2022-08-03T10:23:08.365Z,30.64
2022-08-03T10:25:37.328Z,30.68
2022-08-03T10:28:04.605Z,30.66
2022-08-03T10:30:32.351Z,30.72
2022-08-03T10:33:03.527Z,30.64
2022-08-03T10:35:33.166Z,30.75
2022-08-03T10:38:02.461Z,30.78
2022-08-03T10:40:49.329Z,30.80
2022-08-03T10:43:22.920Z,30.91
2022-08-03T10:45:49.716Z,30.89
2022-08-03T10:48:16.745Z,30.98
2022-08-03T10:50:44.128Z,31.05
2022-08-03T10:53:10.597Z,31.07
2022-08-03T10:56:00.319Z,31.14
2022-08-03T10:58:37.464Z,31.14
2022-08-03T11:02:00.183Z,31.24
2022-08-03T11:04:29.241Z,31.27
2022-08-03T11:07:22.666Z,31.31
2022-08-03T11:09:54.369Z,31.34
2022-08-03T11:12:31.509Z,31.35
2022-08-03T11:15:08.724Z,31.35
2022-08-03T11:17:46.820Z,31.40
2022-08-03T11:20:48.956Z,31.38
2022-08-03T11:23:16.825Z,31.40
2022-08-03T11:26:08.851Z,31.48
2022-08-03T11:28:35.397Z,31.50
2022-08-03T11:31:48.233Z,31.54
2022-08-03T11:34:11.987Z,31.61
2022-08-03T11:37:16.291Z,31.57
2022-08-03T11:39:47.930Z,31.61
2022-08-03T11:42:27.407Z,31.64
2022-08-03T11:44:55.600Z,31.69
2022-08-03T11:47:23.132Z,31.68
2022-08-03T11:49:51.084Z,31.73
2022-08-03T11:52:17.958Z,31.75
2022-08-03T11:54:44.667Z,31.77
2022-08-03T11:57:11.356Z,31.82
2022-08-03T11:59:38.860Z,31.93
2022-08-03T12:02:14.675Z,32.02
2022-08-03T12:04:51.249Z,31.97
2022-08-03T12:07:25.070Z,31.97
2022-08-03T12:10:14.946Z,31.96
2022-08-03T12:12:46.350Z,32.02
2022-08-03T12:15:13.111Z,32.08
2022-08-03T12:17:41.096Z,32.11
2022-08-03T12:20:09.570Z,32.16
2022-08-03T12:22:40.279Z,32.18
2022-08-03T12:25:08.201Z,32.21
2022-08-03T12:27:35.359Z,32.32
2022-08-03T12:30:02.105Z,32.39
2022-08-03T12:32:29.475Z,32.44
2022-08-03T12:35:00.872Z,32.47
2022-08-03T12:37:27.984Z,32.55
2022-08-03T12:40:02.743Z,32.61
2022-08-03T12:42:37.923Z,32.57
2022-08-03T12:45:23.409Z,32.57
2022-08-03T12:47:57.830Z,32.61
2022-08-03T12:50:25.250Z,32.56
2022-08-03T12:52:51.714Z,32.66
2022-08-03T12:55:22.272Z,32.70
2022-08-03T12:57:49.287Z,32.69
2022-08-03T13:00:29.111Z,32.78
2022-08-03T13:03:38.472Z,32.88
2022-08-03T13:05:48.013Z,32.92
2022-08-03T13:08:18.835Z,33.01
2022-08-03T13:10:46.138Z,33.08
2022-08-03T13:13:12.593Z,33.07
2022-08-03T13:15:47.668Z,33.19
2022-08-03T13:18:15.245Z,33.29
2022-08-03T13:20:44.008Z,33.39
2022-08-03T13:23:12.985Z,33.43
2022-08-03T13:25:55.493Z,33.49
2022-08-03T13:28:22.865Z,33.44
2022-08-03T13:30:49.472Z,33.58
2022-08-03T13:33:15.997Z,33.65
2022-08-03T13:35:42.416Z,33.72
2022-08-03T13:38:08.928Z,33.78
2022-08-03T13:40:41.556Z,33.84
2022-08-03T13:43:08.484Z,33.88
2022-08-03T13:45:34.934Z,33.89
2022-08-03T13:48:01.387Z,33.76
2022-08-03T13:50:27.967Z,33.83
2022-08-03T13:52:54.415Z,33.89
2022-08-03T13:55:20.847Z,33.94
2022-08-03T13:58:04.544Z,33.90
2022-08-03T14:00:34.314Z,33.86
2022-08-03T14:03:12.506Z,33.92
2022-08-03T14:05:40.787Z,34.00
2022-08-03T14:08:07.741Z,34.04
2022-08-03T14:10:39.486Z,34.13
2022-08-03T14:13:06.152Z,34.10
2022-08-03T14:15:38.035Z,34.08
2022-08-03T14:18:06.206Z,34.24
2022-08-03T14:20:37.758Z,34.25
2022-08-03T14:23:14.650Z,34.28
2022-08-03T14:25:43.257Z,34.34
2022-08-03T14:28:16.804Z,34.43
2022-08-03T14:30:43.221Z,34.42
2022-08-03T14:33:09.723Z,34.51
2022-08-03T14:35:36.176Z,34.50
2022-08-03T14:38:02.609Z,34.53
2022-08-03T14:40:29.059Z,34.65
2022-08-03T14:42:55.521Z,34.71
2022-08-03T14:45:22.044Z,34.76
2022-08-03T14:50:27.981Z,34.79
2022-08-03T14:50:42.083Z,34.77
2022-08-03T14:53:09.585Z,34.74
2022-08-03T14:55:38.008Z,34.77
2022-08-03T14:58:19.341Z,34.82
2022-08-03T15:00:48.199Z,34.82
2022-08-03T15:03:15.928Z,34.89
2022-08-03T15:05:43.666Z,34.91
2022-08-03T15:08:10.127Z,34.91
2022-08-03T15:10:40.402Z,34.99
2022-08-03T15:13:11.351Z,35.01
2022-08-03T15:15:37.848Z,35.07
2022-08-03T15:18:04.406Z,35.11
2022-08-03T15:20:43.285Z,35.07
2022-08-03T15:23:11.351Z,35.00
2022-08-03T15:26:03.645Z,35.04
2022-08-03T15:28:24.355Z,35.06
2022-08-03T15:30:53.886Z,35.13
2022-08-03T15:33:20.581Z,35.17
2022-08-03T15:35:47.608Z,35.19
2022-08-03T15:38:14.241Z,35.23
2022-08-03T15:40:40.742Z,35.25
2022-08-03T15:43:07.503Z,35.22
2022-08-03T15:45:35.471Z,35.25
2022-08-03T15:48:04.081Z,35.26
2022-08-03T15:50:30.605Z,35.26
2022-08-03T15:52:57.095Z,35.25
2022-08-03T15:55:23.769Z,35.32
2022-08-03T15:59:09.527Z,35.39
2022-08-03T16:00:36.664Z,35.35
2022-08-03T16:03:03.229Z,35.30
2022-08-03T16:05:29.664Z,35.40
2022-08-03T16:07:58.574Z,35.42
2022-08-03T16:10:30.863Z,35.42
2022-08-03T16:12:58.842Z,35.46
2022-08-03T16:15:25.326Z,35.41
2022-08-03T16:17:51.898Z,35.48
2022-08-03T16:20:29.721Z,35.55
2022-08-03T16:23:01.616Z,35.62
2022-08-03T16:25:37.600Z,35.73
2022-08-03T16:28:08.242Z,37.64
2022-08-03T16:30:40.223Z,39.08
2022-08-03T16:33:06.925Z,38.73
2022-08-03T16:35:33.515Z,40.99
2022-08-03T16:37:59.992Z,42.29
2022-08-03T16:40:26.606Z,43.49
2022-08-03T16:42:53.120Z,44.51
2022-08-03T16:45:19.617Z,45.38
2022-08-03T16:47:46.086Z,46.17
2022-08-03T16:50:17.504Z,46.70
2022-08-03T16:52:47.191Z,47.28
2022-08-03T16:55:15.351Z,47.71
2022-08-03T16:57:58.730Z,47.85
2022-08-03T17:00:33.841Z,48.14
2022-08-03T17:03:19.074Z,48.07
2022-08-03T17:05:52.383Z,48.36
2022-08-03T17:08:27.303Z,48.50
2022-08-03T17:10:55.928Z,48.56
2022-08-03T17:13:22.796Z,48.33
2022-08-03T17:15:57.700Z,48.27
2022-08-03T17:18:25.503Z,48.22
2022-08-03T17:20:52.237Z,48.21
2022-08-03T17:23:38.931Z,47.97
2022-08-03T17:26:20.772Z,46.94
2022-08-03T17:28:58.009Z,45.52
2022-08-03T17:31:31.463Z,44.37
2022-08-03T17:34:00.617Z,43.47
2022-08-03T17:36:41.763Z,42.61
2022-08-03T17:39:21.142Z,41.90
2022-08-03T17:42:00.694Z,41.20
2022-08-03T17:44:35.271Z,40.60
2022-08-03T17:47:08.100Z,40.08
2022-08-03T17:49:40.203Z,39.66
2022-08-03T17:52:28.162Z,39.27
2022-08-03T17:58:06.738Z,38.53
2022-08-03T18:00:53.638Z,38.25
2022-08-03T18:03:58.932Z,37.94
2022-08-03T18:06:28.941Z,37.69
2022-08-03T18:09:00.199Z,37.50
2022-08-03T18:11:35.547Z,37.31
2022-08-03T18:14:16.442Z,37.13
2022-08-03T18:16:54.769Z,36.94
2022-08-03T18:19:22.150Z,36.75
2022-08-03T18:22:09.998Z,36.59
2022-08-03T18:24:36.653Z,36.47
2022-08-03T18:27:04.327Z,36.31
2022-08-03T18:29:33.660Z,36.16
2022-08-03T18:32:02.890Z,36.04
2022-08-03T18:34:32.829Z,35.88
2022-08-03T18:37:00.668Z,35.76
2022-08-03T18:39:31.883Z,35.66
2022-08-03T18:41:59.645Z,35.54
2022-08-03T18:44:37.769Z,35.43
2022-08-03T18:47:50.956Z,35.31
2022-08-03T18:50:25.127Z,35.09
2022-08-03T18:53:05.420Z,34.90
2022-08-03T18:56:14.153Z,34.73
2022-08-03T18:59:02.423Z,34.60
2022-08-03T19:02:00.108Z,34.44
2022-08-03T19:04:36.805Z,34.32
2022-08-03T19:07:07.950Z,34.21
2022-08-03T19:09:37.429Z,34.10
2022-08-03T19:12:32.364Z,34.01
2022-08-03T19:15:06.290Z,33.90
2022-08-03T19:17:50.283Z,33.78
2022-08-03T19:20:21.049Z,33.67
2022-08-03T19:22:50.580Z,33.56
2022-08-03T19:25:17.577Z,33.47
2022-08-03T19:27:46.180Z,33.37
2022-08-03T19:30:34.848Z,33.26
2022-08-03T19:33:05.897Z,33.15
2022-08-03T19:35:52.238Z,33.07
2022-08-03T19:38:28.270Z,32.97
2022-08-03T19:41:02.981Z,32.88
2022-08-03T19:43:52.850Z,32.80
2022-08-03T19:46:21.809Z,32.72
2022-08-03T19:48:57.690Z,32.61
2022-08-03T19:51:56.693Z,32.56
2022-08-03T19:54:16.217Z,32.48
2022-08-03T19:56:47.259Z,32.41
2022-08-03T19:59:15.741Z,32.36
2022-08-03T20:01:50.752Z,32.32
2022-08-03T20:04:17.724Z,32.26
2022-08-03T20:06:47.837Z,32.21
2022-08-03T20:09:16.261Z,32.13
2022-08-03T20:11:44.971Z,32.06
2022-08-03T20:14:11.874Z,31.97
2022-08-03T20:16:48.107Z,31.88
2022-08-03T20:19:16.529Z,31.81
2022-08-03T20:21:47.652Z,31.73
2022-08-03T20:24:24.471Z,31.64
2022-08-03T20:26:53.525Z,31.49
2022-08-03T20:29:42.693Z,31.40
2022-08-03T20:32:16.591Z,31.32
2022-08-03T20:34:44.351Z,31.23
2022-08-03T20:37:15.917Z,31.14
2022-08-03T20:39:48.193Z,31.07
2022-08-03T20:42:21.072Z,30.99
2022-08-03T20:45:06.149Z,30.89
2022-08-03T20:47:35.700Z,30.81
2022-08-03T20:50:03.795Z,30.76
2022-08-03T20:52:32.216Z,30.67
2022-08-03T20:54:59.234Z,30.58
2022-08-03T20:57:28.641Z,30.51
2022-08-03T21:00:00.555Z,30.45
2022-08-03T21:02:29.471Z,30.40
2022-08-03T21:05:03.758Z,30.32
2022-08-03T21:08:03.822Z,30.25
2022-08-03T21:10:29.854Z,30.18
2022-08-03T21:12:55.765Z,38.89
2022-08-03T21:13:23.710Z,30.11
2022-08-03T21:16:04.115Z,30.03
2022-08-03T21:18:44.612Z,29.94
2022-08-03T21:21:15.081Z,29.86
2022-08-03T21:23:48.865Z,29.77
2022-08-03T21:26:17.661Z,29.71
2022-08-03T21:28:46.691Z,29.63
2022-08-03T21:31:14.211Z,29.55
2022-08-03T21:33:47.128Z,29.50
2022-08-03T21:36:14.447Z,29.44
2022-08-03T21:38:41.958Z,29.39
2022-08-03T21:41:08.910Z,29.32
2022-08-03T21:43:35.450Z,29.25
2022-08-03T21:46:04.235Z,29.16
2022-08-03T21:48:36.257Z,29.09
2022-08-03T21:51:04.346Z,29.04
2022-08-03T21:54:03.841Z,28.96
2022-08-03T21:56:20.962Z,28.89
2022-08-03T21:58:51.469Z,28.82
2022-08-03T22:01:20.744Z,28.76
2022-08-03T22:03:53.223Z,28.72
2022-08-03T22:06:21.542Z,28.67
2022-08-03T22:08:50.057Z,28.62
2022-08-03T22:11:16.655Z,28.54
2022-08-03T22:13:44.675Z,28.49
2022-08-03T22:16:11.721Z,28.44
2022-08-03T22:18:39.257Z,28.39
2022-08-03T22:21:07.187Z,28.34
2022-08-03T22:23:37.697Z,28.28
2022-08-03T22:26:04.303Z,28.22
2022-08-03T22:28:30.979Z,28.18
2022-08-03T22:30:58.846Z,28.14
2022-08-03T22:33:26.685Z,28.07
2022-08-03T22:35:56.565Z,28.00
2022-08-03T22:38:25.553Z,27.96
2022-08-03T22:40:52.672Z,27.90
2022-08-03T22:43:24.002Z,27.87
2022-08-03T22:46:08.970Z,27.82
2022-08-03T22:48:40.731Z,27.76
2022-08-03T22:51:07.963Z,27.73
2022-08-03T22:53:34.534Z,27.66
2022-08-03T22:56:01.256Z,27.61
2022-08-03T22:58:27.802Z,27.57
2022-08-03T23:01:08.483Z,27.51
2022-08-03T23:04:00.481Z,27.47
2022-08-03T23:06:26.510Z,27.39
2022-08-03T23:08:53.560Z,27.35
2022-08-03T23:11:21.064Z,27.30
2022-08-03T23:13:53.558Z,27.25
2022-08-03T23:16:28.817Z,27.22
2022-08-03T23:18:56.588Z,27.19
2022-08-03T23:21:53.872Z,27.15
2022-08-03T23:24:17.663Z,27.12
2022-08-03T23:26:55.965Z,27.08
2022-08-03T23:29:23.553Z,27.05
2022-08-03T23:31:50.616Z,27.01
2022-08-03T23:34:35.690Z,26.97
2022-08-03T23:37:02.295Z,26.93
2022-08-03T23:39:31.904Z,26.89
2022-08-03T23:42:02.818Z,26.82
2022-08-03T23:44:30.763Z,26.77
2022-08-03T23:46:57.278Z,26.72
2022-08-03T23:49:23.753Z,26.68
2022-08-03T23:52:14.912Z,26.63
2022-08-03T23:54:50.389Z,26.57
2022-08-03T23:57:42.914Z,26.52
